createdAt,value
2023-10-06T00:01:04.590Z,13.95
2023-10-06T00:03:31.146Z,13.94
2023-10-06T00:05:57.747Z,13.92
2023-10-06T00:08:33.067Z,13.91
2023-10-06T00:11:11.926Z,13.92
2023-10-06T00:13:39.220Z,13.90
2023-10-06T00:16:08.534Z,13.89
2023-10-06T00:18:37.960Z,13.90
2023-10-06T00:21:17.562Z,13.89
2023-10-06T00:23:44.511Z,13.88
2023-10-06T00:26:13.432Z,13.85
2023-10-06T00:28:40.577Z,13.84
2023-10-06T00:31:11.515Z,13.82
2023-10-06T00:33:39.127Z,13.78
2023-10-06T00:36:13.754Z,13.76
2023-10-06T00:38:44.158Z,13.75
2023-10-06T00:41:15.281Z,13.72
2023-10-06T00:43:44.837Z,13.70
2023-10-06T00:46:12.148Z,13.72
2023-10-06T00:48:41.494Z,13.70
2023-10-06T00:51:13.917Z,13.70
2023-10-06T00:53:41.527Z,13.69
2023-10-06T00:56:12.399Z,13.66
2023-10-06T00:58:42.266Z,13.67
2023-10-06T01:01:13.361Z,13.64
2023-10-06T01:03:43.844Z,13.63
2023-10-06T01:06:14.286Z,13.62
2023-10-06T01:08:49.409Z,13.57
2023-10-06T01:11:18.781Z,13.57
2023-10-06T01:13:54.681Z,13.59
2023-10-06T01:16:36.959Z,13.59
2023-10-06T01:19:27.792Z,13.57
2023-10-06T01:21:56.196Z,13.55
2023-10-06T01:24:30.571Z,13.56
2023-10-06T01:27:12.442Z,13.55
2023-10-06T01:29:39.455Z,13.57
2023-10-06T01:32:06.710Z,13.55
2023-10-06T01:34:39.372Z,13.54
2023-10-06T01:37:07.381Z,13.55
2023-10-06T01:39:36.664Z,13.55
2023-10-06T01:42:08.364Z,13.54
2023-10-06T01:44:36.374Z,13.53
2023-10-06T01:47:06.110Z,13.53
2023-10-06T01:49:35.294Z,13.52
2023-10-06T01:52:09.420Z,13.52
2023-10-06T01:54:36.837Z,13.51
2023-10-06T01:57:05.438Z,13.48
2023-10-06T01:59:32.005Z,13.48
2023-10-06T02:02:02.617Z,13.49
2023-10-06T02:04:40.426Z,13.48
2023-10-06T02:07:11.372Z,13.46
2023-10-06T02:09:38.599Z,13.44
2023-10-06T02:12:06.328Z,13.42
2023-10-06T02:14:32.923Z,13.43
2023-10-06T02:17:06.472Z,13.41
2023-10-06T02:19:35.350Z,13.39
2023-10-06T02:22:02.174Z,13.38
2023-10-06T02:24:28.783Z,13.37
2023-10-06T02:27:02.812Z,13.36
2023-10-06T02:29:30.455Z,13.36
2023-10-06T02:32:08.341Z,13.35
2023-10-06T02:34:37.028Z,13.35
2023-10-06T02:37:05.647Z,13.36
2023-10-06T02:39:39.913Z,13.34
2023-10-06T02:42:10.452Z,13.36
2023-10-06T02:44:39.945Z,13.34
2023-10-06T02:47:10.913Z,13.33
2023-10-06T02:49:41.538Z,13.32
2023-10-06T02:52:14.453Z,13.32
2023-10-06T02:54:48.279Z,13.32
2023-10-06T02:57:21.064Z,13.34
2023-10-06T02:59:49.333Z,13.33
2023-10-06T03:02:21.835Z,13.32
2023-10-06T03:04:55.943Z,13.33
2023-10-06T03:07:23.445Z,13.34
2023-10-06T03:09:50.090Z,13.33
2023-10-06T03:12:27.109Z,13.34
2023-10-06T03:14:55.523Z,13.33
2023-10-06T03:17:22.279Z,13.32
2023-10-06T03:20:09.426Z,13.33
2023-10-06T03:22:38.833Z,13.33
2023-10-06T03:25:19.093Z,13.33
2023-10-06T03:27:47.239Z,13.33
2023-10-06T03:30:27.820Z,13.32
2023-10-06T03:32:54.941Z,13.31
2023-10-06T03:35:38.071Z,13.34
2023-10-06T03:38:29.036Z,13.33
2023-10-06T03:40:58.278Z,13.31
2023-10-06T03:43:43.643Z,13.32
2023-10-06T03:46:14.893Z,13.30
2023-10-06T03:48:42.110Z,13.34
2023-10-06T03:51:08.587Z,13.32
2023-10-06T03:53:35.203Z,13.29
2023-10-06T03:56:02.026Z,13.31
2023-10-06T03:58:29.440Z,13.29
2023-10-06T04:00:56.194Z,13.32
2023-10-06T04:03:22.996Z,13.32
2023-10-06T04:05:50.847Z,13.33
2023-10-06T04:08:20.315Z,13.34
2023-10-06T04:10:49.991Z,13.33
2023-10-06T04:13:24.007Z,13.34
2023-10-06T04:15:51.749Z,13.32
2023-10-06T04:18:19.982Z,13.33
2023-10-06T04:20:47.284Z,13.34
2023-10-06T04:23:15.971Z,13.34
2023-10-06T04:25:42.893Z,13.35
2023-10-06T04:28:12.178Z,13.39
2023-10-06T04:30:39.717Z,13.41
2023-10-06T04:33:06.757Z,13.39
2023-10-06T04:35:33.876Z,13.38
2023-10-06T04:38:02.250Z,13.38
2023-10-06T04:40:30.122Z,13.35
2023-10-06T04:43:02.626Z,13.35
2023-10-06T04:45:32.938Z,13.35
2023-10-06T04:48:01.728Z,13.34
2023-10-06T04:50:30.673Z,13.36
2023-10-06T04:52:57.950Z,13.35
2023-10-06T04:55:24.512Z,13.36
2023-10-06T04:57:51.105Z,13.34
2023-10-06T05:00:28.130Z,13.35
2023-10-06T05:02:54.698Z,13.35
2023-10-06T05:05:23.946Z,13.35
2023-10-06T05:07:54.653Z,13.35
2023-10-06T05:10:26.514Z,13.35
2023-10-06T05:12:54.505Z,13.35
2023-10-06T05:15:25.318Z,13.36
2023-10-06T05:17:56.407Z,13.36
2023-10-06T05:20:24.602Z,13.36
2023-10-06T05:22:51.875Z,13.36
2023-10-06T05:25:20.813Z,13.33
2023-10-06T05:27:48.488Z,13.33
2023-10-06T05:30:15.956Z,13.34
2023-10-06T05:32:43.696Z,13.35
2023-10-06T05:35:15.099Z,13.38
2023-10-06T05:37:44.196Z,13.37
2023-10-06T05:40:13.390Z,13.36
2023-10-06T05:42:41.942Z,13.36
2023-10-06T05:45:16.933Z,13.37
2023-10-06T05:47:46.333Z,13.39
2023-10-06T05:50:19.923Z,13.39
2023-10-06T05:52:52.895Z,13.40
2023-10-06T05:55:20.850Z,13.43
2023-10-06T05:57:59.003Z,13.46
2023-10-06T06:00:28.181Z,13.47
2023-10-06T06:02:59.235Z,13.51
2023-10-06T06:05:30.922Z,13.56
2023-10-06T06:08:00.525Z,13.58
2023-10-06T06:10:34.773Z,13.56
2023-10-06T06:13:01.360Z,13.59
2023-10-06T06:15:28.349Z,13.61
2023-10-06T06:17:55.302Z,13.62
2023-10-06T06:20:23.373Z,13.63
2023-10-06T06:22:54.499Z,13.64
2023-10-06T06:25:22.914Z,13.65
2023-10-06T06:27:51.030Z,13.65
2023-10-06T06:30:19.875Z,13.67
2023-10-06T06:32:56.035Z,13.65
2023-10-06T06:35:24.091Z,13.65
2023-10-06T06:37:52.573Z,13.65
2023-10-06T06:40:21.073Z,13.68
2023-10-06T06:42:49.717Z,13.69
2023-10-06T06:45:16.823Z,13.67
2023-10-06T06:47:43.466Z,13.68
2023-10-06T06:50:14.538Z,13.68
2023-10-06T06:52:41.374Z,13.67
2023-10-06T06:55:13.950Z,13.68
2023-10-06T06:57:44.360Z,13.70
2023-10-06T07:00:17.028Z,13.70
2023-10-06T07:02:52.152Z,13.71
2023-10-06T07:05:20.602Z,13.71
2023-10-06T07:07:50.167Z,13.73
2023-10-06T07:10:21.338Z,13.77
2023-10-06T07:12:50.057Z,13.81
2023-10-06T07:15:18.621Z,13.83
2023-10-06T07:17:47.012Z,13.86
2023-10-06T07:20:15.464Z,13.93
2023-10-06T07:22:42.439Z,13.92
2023-10-06T07:25:11.883Z,13.95
2023-10-06T07:27:39.791Z,14.00
2023-10-06T07:30:11.180Z,14.07
2023-10-06T07:32:44.798Z,14.10
2023-10-06T07:35:14.037Z,14.18
2023-10-06T07:37:44.509Z,14.26
2023-10-06T07:40:14.637Z,14.29
2023-10-06T07:42:43.529Z,14.32
2023-10-06T07:45:10.778Z,14.37
2023-10-06T07:47:40.603Z,14.40
2023-10-06T07:50:08.628Z,14.45
2023-10-06T07:52:37.010Z,14.48
2023-10-06T07:55:06.900Z,14.47
2023-10-06T07:57:34.355Z,14.47
2023-10-06T08:00:01.084Z,14.50
2023-10-06T08:02:30.411Z,14.56
2023-10-06T08:04:57.292Z,14.60
2023-10-06T08:07:27.717Z,14.65
2023-10-06T08:10:01.299Z,14.73
2023-10-06T08:12:28.357Z,14.79
2023-10-06T08:14:55.568Z,14.85
2023-10-06T08:17:23.390Z,14.91
2023-10-06T08:19:50.052Z,14.97
2023-10-06T08:22:17.189Z,15.01
2023-10-06T08:24:44.608Z,15.08
2023-10-06T08:27:12.849Z,15.15
2023-10-06T08:29:39.672Z,15.19
2023-10-06T08:32:07.734Z,15.24
2023-10-06T08:34:40.385Z,15.28
2023-10-06T08:37:12.372Z,15.33
2023-10-06T08:39:40.379Z,15.36
2023-10-06T08:42:11.190Z,15.38
2023-10-06T08:44:40.133Z,15.40
2023-10-06T08:47:26.386Z,15.47
2023-10-06T08:49:58.023Z,15.49
2023-10-06T08:52:24.776Z,15.52
2023-10-06T08:54:51.454Z,15.53
2023-10-06T08:57:18.015Z,15.53
2023-10-06T08:59:46.050Z,15.57
2023-10-06T09:02:13.144Z,15.59
2023-10-06T09:04:39.926Z,15.61
2023-10-06T09:07:09.321Z,15.66
2023-10-06T09:09:37.379Z,15.69
2023-10-06T09:12:04.924Z,15.71
2023-10-06T09:14:32.538Z,15.74
2023-10-06T09:17:02.785Z,15.78
2023-10-06T09:19:49.654Z,15.83
2023-10-06T09:22:17.745Z,15.83
2023-10-06T09:24:56.953Z,15.87
2023-10-06T09:27:26.308Z,15.87
2023-10-06T09:30:00.239Z,15.90
2023-10-06T09:32:27.229Z,15.94
2023-10-06T09:34:54.997Z,15.98
2023-10-06T09:37:21.825Z,16.02
2023-10-06T09:40:21.382Z,16.06
2023-10-06T09:42:49.602Z,16.11
2023-10-06T09:45:23.029Z,16.20
2023-10-06T09:47:51.611Z,16.32
2023-10-06T09:50:21.613Z,16.46
2023-10-06T09:52:50.724Z,16.56
2023-10-06T09:55:18.933Z,16.63
2023-10-06T09:57:48.352Z,16.77
2023-10-06T10:00:18.891Z,16.86
2023-10-06T10:02:48.552Z,16.92
2023-10-06T10:05:20.139Z,16.98
2023-10-06T10:07:49.789Z,17.03
2023-10-06T10:10:23.434Z,17.08
2023-10-06T10:13:13.286Z,17.16
2023-10-06T10:15:41.866Z,17.24
2023-10-06T10:18:24.595Z,17.28
2023-10-06T10:20:51.611Z,17.26
2023-10-06T10:23:18.204Z,17.21
2023-10-06T10:25:46.013Z,17.18
2023-10-06T10:28:14.601Z,17.16
2023-10-06T10:30:58.227Z,17.10
2023-10-06T10:33:29.355Z,17.08
2023-10-06T10:36:13.252Z,17.03
2023-10-06T10:38:41.147Z,17.03
2023-10-06T10:41:08.581Z,17.05
2023-10-06T10:43:42.138Z,17.08
2023-10-06T10:46:10.251Z,17.12
2023-10-06T10:48:38.996Z,17.18
2023-10-06T10:51:12.273Z,17.26
2023-10-06T10:53:43.353Z,17.34
2023-10-06T10:56:14.785Z,17.47
2023-10-06T10:58:45.532Z,17.62
2023-10-06T11:01:28.892Z,17.72
2023-10-06T11:04:11.303Z,17.77
2023-10-06T11:06:40.722Z,17.84
2023-10-06T11:09:24.160Z,17.93
2023-10-06T11:11:50.754Z,17.95
2023-10-06T11:14:17.327Z,17.92
2023-10-06T11:16:47.787Z,17.89
2023-10-06T11:19:16.321Z,17.92
2023-10-06T11:21:45.346Z,17.93
2023-10-06T11:24:14.226Z,17.96
2023-10-06T11:26:44.596Z,17.99
2023-10-06T11:29:11.138Z,18.02
2023-10-06T11:31:37.841Z,18.07
2023-10-06T11:34:04.592Z,18.04
2023-10-06T11:36:31.870Z,18.02
2023-10-06T11:38:58.463Z,18.01
2023-10-06T11:41:25.424Z,18.01
2023-10-06T11:43:56.487Z,18.00
2023-10-06T11:46:23.100Z,17.95
2023-10-06T11:48:51.135Z,17.98
2023-10-06T11:51:17.722Z,18.02
2023-10-06T11:53:45.802Z,18.10
2023-10-06T11:56:15.232Z,18.09
2023-10-06T11:58:43.275Z,18.07
2023-10-06T12:01:33.945Z,18.05
2023-10-06T12:06:47.795Z,18.07
2023-10-06T12:09:25.013Z,18.04
2023-10-06T12:11:51.713Z,17.98
2023-10-06T12:14:18.284Z,17.95
2023-10-06T12:16:46.179Z,17.93
2023-10-06T12:19:13.783Z,17.92
2023-10-06T12:21:40.337Z,17.92
2023-10-06T12:24:09.576Z,17.93
2023-10-06T12:26:36.296Z,17.97
2023-10-06T12:29:03.311Z,18.02
2023-10-06T12:31:29.928Z,18.03
2023-10-06T12:33:56.947Z,18.02
2023-10-06T12:36:24.587Z,18.07
2023-10-06T12:38:51.180Z,18.10
2023-10-06T12:41:19.060Z,18.14
2023-10-06T12:43:48.648Z,18.15
2023-10-06T12:46:15.461Z,18.14
2023-10-06T12:48:42.066Z,18.17
2023-10-06T12:51:13.033Z,18.16
2023-10-06T12:53:41.818Z,18.15
2023-10-06T12:56:09.993Z,18.14
2023-10-06T12:58:36.725Z,18.15
2023-10-06T13:01:08.482Z,18.16
2023-10-06T13:03:37.443Z,18.19
2023-10-06T13:06:04.932Z,18.22
2023-10-06T13:08:31.699Z,18.26
2023-10-06T13:10:58.429Z,18.30
2023-10-06T13:13:25.086Z,18.38
2023-10-06T13:15:52.086Z,18.44
2023-10-06T13:18:19.258Z,18.49
2023-10-06T13:20:46.983Z,18.50
2023-10-06T13:23:14.092Z,18.52
2023-10-06T13:25:42.494Z,18.56
2023-10-06T13:28:16.161Z,18.58
2023-10-06T13:30:44.645Z,18.61
2023-10-06T13:33:11.536Z,18.60
2023-10-06T13:35:38.331Z,18.61
2023-10-06T13:38:05.992Z,18.63
2023-10-06T13:40:35.525Z,18.67
2023-10-06T13:43:02.280Z,18.68
2023-10-06T13:45:31.039Z,18.70
2023-10-06T13:48:04.391Z,18.69
2023-10-06T13:50:32.270Z,18.65
2023-10-06T13:52:58.950Z,18.68
2023-10-06T13:55:26.026Z,18.71
2023-10-06T13:57:54.571Z,18.79
2023-10-06T14:00:41.573Z,18.85
2023-10-06T14:03:13.310Z,18.92
2023-10-06T14:05:42.760Z,18.93
2023-10-06T14:08:11.203Z,18.90
2023-10-06T14:10:38.369Z,18.90
2023-10-06T14:13:17.922Z,18.86
2023-10-06T14:15:54.750Z,18.85
2023-10-06T14:18:26.092Z,18.84
2023-10-06T14:20:58.050Z,18.84
2023-10-06T14:23:26.193Z,18.85
2023-10-06T14:25:54.760Z,18.88
2023-10-06T14:28:23.490Z,18.91
2023-10-06T14:30:52.753Z,18.93
2023-10-06T14:33:29.650Z,18.96
2023-10-06T14:35:59.666Z,18.97
2023-10-06T14:38:33.673Z,18.96
2023-10-06T14:41:16.547Z,18.95
2023-10-06T14:47:22.304Z,18.92
2023-10-06T14:49:48.831Z,18.91
2023-10-06T14:52:15.714Z,18.91
2023-10-06T14:54:42.395Z,18.90
2023-10-06T14:57:09.150Z,18.87
2023-10-06T14:59:36.271Z,18.90
2023-10-06T15:04:55.378Z,18.91
2023-10-06T15:07:21.956Z,18.91
2023-10-06T15:09:50.631Z,18.88
2023-10-06T15:12:17.341Z,18.86
2023-10-06T15:14:45.858Z,18.85
2023-10-06T15:17:13.772Z,18.82
2023-10-06T15:19:40.491Z,18.78
2023-10-06T15:24:56.795Z,18.71
2023-10-06T15:27:24.457Z,18.68
2023-10-06T15:29:52.406Z,18.66
2023-10-06T15:32:19.027Z,18.66
2023-10-06T15:34:45.629Z,18.63
2023-10-06T15:37:12.207Z,18.62
2023-10-06T15:39:42.114Z,18.60
2023-10-06T15:42:10.954Z,18.59
2023-10-06T15:44:38.709Z,18.56
2023-10-06T15:47:08.745Z,18.53
2023-10-06T15:49:39.512Z,18.50
2023-10-06T15:52:06.601Z,18.48
2023-10-06T15:54:33.742Z,18.44
2023-10-06T15:57:01.019Z,18.41
2023-10-06T15:59:31.089Z,18.39
2023-10-06T16:01:58.004Z,18.35
2023-10-06T16:04:27.654Z,18.33
2023-10-06T16:06:54.619Z,18.31
2023-10-06T16:09:21.476Z,18.28
2023-10-06T16:11:49.073Z,18.24
2023-10-06T16:14:17.739Z,18.22
2023-10-06T16:16:45.258Z,18.19
2023-10-06T16:19:15.469Z,18.18
2023-10-06T16:21:43.451Z,18.16
2023-10-06T16:24:13.079Z,18.14
2023-10-06T16:26:40.213Z,18.13
2023-10-06T16:29:08.602Z,18.12
2023-10-06T16:31:35.604Z,18.09
2023-10-06T16:34:02.491Z,18.08
2023-10-06T16:36:29.228Z,18.05
2023-10-06T16:38:55.850Z,18.07
2023-10-06T16:41:22.848Z,18.05
2023-10-06T16:43:54.694Z,18.04
2023-10-06T16:46:21.770Z,18.03
2023-10-06T16:48:49.853Z,18.02
2023-10-06T16:51:18.844Z,18.01
2023-10-06T16:53:49.633Z,18.02
2023-10-06T16:56:17.183Z,18.00
2023-10-06T16:58:44.015Z,17.98
2023-10-06T17:01:12.000Z,17.98
2023-10-06T17:03:38.895Z,17.95
2023-10-06T17:06:07.629Z,17.93
2023-10-06T17:08:34.610Z,17.91
2023-10-06T17:11:15.764Z,17.89
2023-10-06T17:13:43.382Z,17.87
2023-10-06T17:16:14.139Z,17.82
2023-10-06T17:18:42.677Z,17.78
2023-10-06T17:21:13.130Z,17.77
2023-10-06T17:23:40.001Z,17.72
2023-10-06T17:26:09.248Z,17.67
2023-10-06T17:28:36.745Z,17.64
2023-10-06T17:31:04.136Z,17.59
2023-10-06T17:33:31.410Z,17.54
2023-10-06T17:35:58.328Z,17.51
2023-10-06T17:38:25.161Z,17.46
2023-10-06T17:40:51.790Z,17.44
2023-10-06T17:43:18.557Z,17.41
2023-10-06T17:45:45.874Z,17.38
2023-10-06T17:48:15.506Z,17.39
2023-10-06T17:50:49.690Z,17.34
2023-10-06T17:53:17.395Z,17.30
2023-10-06T17:55:53.551Z,17.29
2023-10-06T17:58:20.352Z,17.28
2023-10-06T18:00:48.753Z,17.25
2023-10-06T18:03:18.351Z,17.22
2023-10-06T18:05:46.395Z,17.21
2023-10-06T18:08:13.081Z,17.18
2023-10-06T18:10:41.767Z,17.16
2023-10-06T18:13:08.741Z,17.13
2023-10-06T18:15:40.711Z,17.15
2023-10-06T18:18:07.995Z,17.14
2023-10-06T18:20:39.427Z,17.11
2023-10-06T18:23:06.967Z,17.11
2023-10-06T18:25:35.442Z,17.11
2023-10-06T18:28:04.430Z,17.11
2023-10-06T18:30:32.061Z,17.12
2023-10-06T18:32:59.084Z,17.14
2023-10-06T18:35:26.926Z,17.13
2023-10-06T18:37:54.641Z,17.11
2023-10-06T18:40:22.573Z,17.08
2023-10-06T18:42:49.178Z,17.07
2023-10-06T18:45:15.923Z,17.04
2023-10-06T18:47:42.610Z,17.01
2023-10-06T18:50:18.741Z,17.00
2023-10-06T18:52:47.864Z,16.99
2023-10-06T18:55:15.662Z,17.00
2023-10-06T18:57:42.930Z,16.97
2023-10-06T19:00:12.370Z,16.98
2023-10-06T19:02:40.689Z,16.97
2023-10-06T19:05:08.319Z,16.96
2023-10-06T19:07:35.401Z,16.95
2023-10-06T19:10:03.496Z,16.94
2023-10-06T19:12:30.345Z,16.94
2023-10-06T19:14:57.307Z,16.91
2023-10-06T19:17:24.575Z,16.90
2023-10-06T19:19:54.648Z,16.89
2023-10-06T19:22:21.550Z,16.85
2023-10-06T19:24:48.248Z,16.81
2023-10-06T19:27:15.160Z,16.80
2023-10-06T19:29:41.736Z,16.77
2023-10-06T19:32:09.627Z,16.77
2023-10-06T19:34:36.298Z,16.76
2023-10-06T19:37:02.932Z,16.74
2023-10-06T19:39:29.522Z,16.72
2023-10-06T19:41:58.361Z,16.70
2023-10-06T19:44:32.945Z,16.68
2023-10-06T19:47:03.698Z,16.66
2023-10-06T19:49:31.629Z,16.65
2023-10-06T19:51:58.588Z,16.63
2023-10-06T19:54:26.670Z,16.61
2023-10-06T19:56:53.320Z,16.57
2023-10-06T19:59:20.447Z,16.56
2023-10-06T20:01:47.159Z,16.54
2023-10-06T20:04:13.907Z,16.53
2023-10-06T20:06:40.569Z,16.50
2023-10-06T20:09:11.178Z,16.48
2023-10-06T20:11:39.029Z,16.48
2023-10-06T20:14:08.189Z,16.48
2023-10-06T20:16:34.945Z,16.48
2023-10-06T20:19:01.945Z,16.46
2023-10-06T20:21:30.692Z,16.42
2023-10-06T20:23:58.190Z,16.40
2023-10-06T20:26:25.009Z,16.37
2023-10-06T20:28:51.614Z,16.36
2023-10-06T20:31:18.420Z,16.36
2023-10-06T20:33:46.538Z,16.36
2023-10-06T20:36:13.123Z,16.35
2023-10-06T20:38:39.813Z,16.32
2023-10-06T20:41:06.422Z,16.30
2023-10-06T20:43:33.634Z,16.28
2023-10-06T20:46:05.019Z,16.28
2023-10-06T20:48:31.867Z,16.25
2023-10-06T20:51:04.726Z,16.22
2023-10-06T20:53:33.374Z,16.21
2023-10-06T20:56:03.941Z,16.21
2023-10-06T20:58:31.062Z,16.21
2023-10-06T21:01:04.296Z,16.20
2023-10-06T21:03:32.042Z,16.18
2023-10-06T21:06:01.858Z,16.15
2023-10-06T21:08:30.933Z,16.14
2023-10-06T21:11:02.189Z,16.15
2023-10-06T21:13:28.982Z,16.15
2023-10-06T21:15:55.530Z,16.13
2023-10-06T21:18:23.487Z,16.11
2023-10-06T21:20:50.310Z,16.09
2023-10-06T21:23:17.016Z,16.08
2023-10-06T21:25:45.915Z,16.08
2023-10-06T21:28:13.162Z,16.07
2023-10-06T21:30:39.789Z,16.05
2023-10-06T21:33:06.525Z,16.03
2023-10-06T21:35:33.466Z,16.03
2023-10-06T21:38:01.274Z,16.01
2023-10-06T21:40:28.510Z,16.01
2023-10-06T21:42:55.829Z,16.03
2023-10-06T21:45:22.335Z,16.02
2023-10-06T21:47:49.078Z,16.01
2023-10-06T21:50:16.059Z,16.00
2023-10-06T21:52:43.443Z,15.96
2023-10-06T21:55:10.443Z,15.96
2023-10-06T21:57:37.108Z,15.95
2023-10-06T22:00:12.301Z,15.96
2023-10-06T22:02:39.225Z,15.96
2023-10-06T22:05:06.654Z,15.93
2023-10-06T22:07:33.562Z,15.90
2023-10-06T22:10:00.719Z,15.86
2023-10-06T22:12:27.565Z,15.84
2023-10-06T22:14:55.633Z,15.83
2023-10-06T22:17:22.267Z,15.83
2023-10-06T22:19:48.878Z,15.79
2023-10-06T22:22:16.217Z,15.76
2023-10-06T22:24:42.840Z,15.75
2023-10-06T22:27:11.258Z,15.74
2023-10-06T22:29:39.827Z,15.72
2023-10-06T22:32:07.477Z,15.70
2023-10-06T22:34:34.272Z,15.69
2023-10-06T22:37:05.521Z,15.67
2023-10-06T22:39:42.243Z,15.66
2023-10-06T22:42:08.863Z,15.66
2023-10-06T22:44:36.963Z,15.65
2023-10-06T22:47:05.113Z,15.66
2023-10-06T22:49:32.323Z,15.65
2023-10-06T22:52:00.443Z,15.62
2023-10-06T22:54:26.995Z,15.61
2023-10-06T22:56:53.581Z,15.63
2023-10-06T22:59:21.657Z,15.64
2023-10-06T23:01:49.695Z,15.65
2023-10-06T23:04:17.104Z,15.61
2023-10-06T23:06:43.821Z,15.59
2023-10-06T23:09:13.814Z,15.58
2023-10-06T23:11:40.930Z,15.57
2023-10-06T23:14:10.064Z,15.57
2023-10-06T23:16:40.484Z,15.55
2023-10-06T23:19:13.550Z,15.56
2023-10-06T23:21:42.625Z,15.55
2023-10-06T23:24:16.241Z,15.54
2023-10-06T23:26:43.812Z,15.55
2023-10-06T23:29:10.698Z,15.57
2023-10-06T23:31:37.864Z,15.55
2023-10-06T23:34:05.443Z,15.51
2023-10-06T23:36:32.145Z,15.50
2023-10-06T23:39:00.090Z,15.50
2023-10-06T23:41:26.978Z,15.50
2023-10-06T23:43:53.791Z,15.50
2023-10-06T23:46:22.322Z,15.48
2023-10-06T23:48:52.828Z,15.48
2023-10-06T23:51:20.191Z,15.52
2023-10-06T23:53:46.879Z,15.54
2023-10-06T23:56:24.085Z,15.55
2023-10-06T23:58:59.078Z,15.56
